Marseilles, IL (61341)

10:43 AM CDT on July 25, 2017 (GMT -0500)
Eye On The Sky Storm Spotters Mars | | Change Station
Active Advisory: Flood Warning

Elev 633 ft 41.33 °N, 88.70 °W | Updated 1 minute ago

Clear
Clear
77.5 °F
Feels Like 79 °F
N
4.0
Wind Variable Wind from South

Today
High -- | Low -- °F
--% Chance of Precip.
Yesterday
High -- | Low -- °F
Precip. -- in
Pressure 30.19 in
Visibility 10.0 miles
Clouds Clear
Heat Index 79 °F
Dew Point 60 °F
Humidity 55%
Rainfall 0.00 in
Snow Depth Not available.
5:43 AM 8:18 PM
Waxing Crescent, 7% visible
METAR KC09 251535Z AUTO 13010KT 10SM CLR 23/16 A3019 RMK AO2 T02290159
Pressure 30.19 in
Visibility 10.0 miles
Clouds Clear
Heat Index 79 °F
Dew Point 60 °F
Humidity 55%
Rainfall 0.00 in
Snow Depth Not available.
5:43 AM 8:18 PM
Waxing Crescent, 7% visible
METAR KC09 251535Z AUTO 13010KT 10SM CLR 23/16 A3019 RMK AO2 T02290159

Get Your Daily Forecast Email!

Thanks for signing up!

Be on the lookout for a verification email in your inbox.

You'll start receiving severe weather alerts in your inbox..

×

10-Day Weather Forecast

Almanac

Astronomy

Jul. 25, 2017 Rise Set
Actual Time
Civil Twilight
Nautical Twilight
Astronomical Twilight
Moon
Length of Visible Light
Length of Day
Tomorrow will be .
, % of the Moon is Illuminated

Today's Extremes

State Highs State Lows

Community

WunderPhotos

Category 6

Welcome to Category 6. This is the collective home for Weather Underground's featured writeups by Dr. Jeff Masters (right), Bob Henson (left), Chris Burt, and other regular contributors.

Nearby

Air Quality

  Air Quality AQ Index Pollutant
Not available.

Snow Depth

Station Depth Elevation

Earthquake Activity

City Distance Mag. Time & Date
Minimum magnitude displayed is 2.5.

Coastal Water Temperatures

Place Temperature

Stations

Nearby Weather Stations

Station Location Temp. Windchill Dew Point Humidity Wind Precip. Elev Updated Type
                   

Watches & Warnings

Flood Warning
Issued: 8:19 AM CDT Jul. 25, 2017 – National Weather Service

The Flood Warning continues for
the Fox River at Dayton.
* Until late tonight.
* At 745 am Tuesday the stage was 12.2 feet.
* Flood stage is 12.0 feet.
* Minor flooding is occurring and minor flooding is forecast.
* Forecast... the river will continue to fall to below flood stage by
this evening.
* Impact... at 12.0 feet... the river begins to overflow banks in the
lowest areas.


Lat... Lon 4154 8860 4133 8878 4134 8889 4157 8871
      4164 8860




909 PM CDT Mon Jul 24 2017

The Flood Warning continues for
the Illinois River at La Salle.
* Until Thursday afternoon.
* At 845 PM Monday the stage was 22.9 feet.
* Flood stage is 20.0 feet.
* Minor flooding is occurring and minor flooding is forecast.
* Forecast... the river will continue to fall to below flood stage by
late Thursday morning.
* Impact... at 22.0 feet... Riverside parking lot at Starved Rock State
Park floods.


Lat... Lon 4128 8896 4126 8930 4135 8929 4137 8896